Singleton, Texas
Current Conditions -  °F | °C
As of 8:53 AM on Saturday 20 Dec 2014 (Local Time) from KUTS Reporting Station
Overcast Overcast  
Wind Chill: 49°   Ceiling: 600
Heat Index: 49°   Visibility: 9mi
Dew Point: 47°   Wind: 3mph
Humidity: 93%   Direction: NA
Pressure: 30.22"   Gusts: NA
Location:  30.7529°N, 95.9206°W
Report Text: KUTS 201453Z AUTO VRB03KT 9SM OVC006 09/08 A3022 RMK AO2 CIG 003V008 SLP234 T00940083 53012
Loading
Personal Weather Stations






























Interactive Weather Map New forecast layout! Learn more

10-Day Weather Forecast

Advertisements
Track Severe Weather on mobile